Current Weather Conditions: station 46145

sailwx.info

Wind from 280 at 11 knots gusting 15

Wave height 1.9 meters (6 feet), 12 second period

Air temperature 7.4° C
Water temperature 7.4° C

Last reported at 2018-Apr-24 23:00 UTC.
Time now 2018-Apr-25 00:52 UTC

Location: N 54°24' W 132°24'.
View on Google Maps.

See reports from other nearby stations

  
Tides and Currents Weather Stations Pressure Air Temp Water Temp Dewpoint Dewpoint Depression Visibility Wind Speed Wind Dir Waves Ship Positions
date/time (UTC)wind fromknots sea level pressurealtimeterstation pressurevisibilityair tempwater tempwave heightnotes
2018-Apr-24 23:00 280 11 gusting 15 7.4 7.4 1.9
2018-Apr-24 22:00 270 9 gusting 11 7.4 7.3 1.7
2018-Apr-24 21:00 270 9 gusting 13 7.3 7.3 1.6
2018-Apr-24 20:00 290 11 gusting 13 7.2 7.2 1.8
2018-Apr-24 19:00 280 9 gusting 13 7.1 7.1 1.7
2018-Apr-24 18:00 280 9 gusting 11 7.1 7.1 1.8
2018-Apr-24 17:00 280 11 gusting 13 7.1 7.0 1.7
2018-Apr-24 16:00 290 13 gusting 15 6.9 7.0 1.8
2018-Apr-24 15:00 290 11 gusting 15 7.0 7.0 1.6
2018-Apr-24 14:00 270 11 gusting 13 7.3 7.0 1.7
2018-Apr-24 13:00 250 5 gusting 7 7.2 6.9 1.9
2018-Apr-24 12:00 230 3 gusting 3 7.3 7.0 1.8
2018-Apr-24 11:00 250 3 gusting 5 7.3 7.1 2.1
2018-Apr-24 10:00 240 3 gusting 5 7.3 7.0 1.9
2018-Apr-24 09:00 270 3 gusting 3 7.3 7.0 2.1
2018-Apr-24 08:00 210 3 gusting 5 7.5 7.0 2.2
2018-Apr-24 07:00 160 3 gusting 5 7.4 7.0 2.1
2018-Apr-24 06:00 160 5 gusting 7 7.6 7.0 2.3
2018-Apr-24 05:00 160 7 gusting 9 7.7 7.1 2.3
2018-Apr-24 04:00 150 11 gusting 13 7.9 7.0 2.2
2018-Apr-24 03:00 150 13 gusting 15 7.8 7.0 2.3
2018-Apr-24 02:00 150 13 gusting 15 7.7 7.0 2.1
2018-Apr-24 01:00 150 15 gusting 17 7.8 7.0 2.3
2018-Apr-24 00:00 140 17 gusting 19 7.7 7.0 2.2
2018-Apr-23 23:00 140 17 gusting 21 7.9 6.9 2.4
2018-Apr-23 22:00 130 19 gusting 25 8.1 6.9 2.4
2018-Apr-23 21:00 140 21 gusting 25 8.1 7.0 2.4
2018-Apr-23 20:00 140 21 gusting 27 8.1 6.9 2.5
2018-Apr-23 19:00 140 23 gusting 27 8.2 7.0 2.3
2018-Apr-23 18:00 140 21 gusting 25 8.0 7.0 2.3
2018-Apr-23 17:00 140 21 gusting 27 7.9 7.0 2.0
2018-Apr-23 16:00 140 23 gusting 29 7.9 7.1 2.1
2018-Apr-23 15:00 140 23 gusting 27 7.9 7.0 2.0
2018-Apr-23 14:00 140 23 gusting 29 7.8 6.9 1.9
2018-Apr-23 13:00 140 23 gusting 29 7.8 6.9 2.0
2018-Apr-23 12:00 140 23 gusting 27 7.8 6.9 1.9
2018-Apr-23 11:00 140 23 gusting 27 7.8 6.9 2.0
2018-Apr-23 10:00 140 23 gusting 29 7.8 6.9 2.1
2018-Apr-23 09:00 130 23 gusting 29 7.9 6.9 2.2
2018-Apr-23 08:00 140 23 gusting 27 7.9 7.0 2.2
2018-Apr-23 07:00 140 23 gusting 27 7.9 7.0 2.3
2018-Apr-23 06:00 140 21 gusting 27 7.9 7.0 2.4
2018-Apr-23 05:00 140 23 gusting 27 7.8 7.0 2.3
2018-Apr-23 04:00 130 23 gusting 27 7.8 7.0 2.1
2018-Apr-23 03:00 130 21 gusting 27 7.8 7.1 1.9
2018-Apr-23 02:00 130 21 gusting 25 7.9 7.1 1.6
2018-Apr-23 01:00 130 21 gusting 25 7.8 7.0 1.6
2018-Apr-23 00:00 130 17 gusting 23 7.8 7.0 1.6